createdAt,value
2018-08-11T00:01:44.776Z,2.13
2018-08-11T00:04:13.128Z,2.10
2018-08-11T00:06:41.254Z,2.17
2018-08-11T00:09:10.680Z,1.80
2018-08-11T00:11:38.953Z,1.87
2018-08-11T00:14:07.635Z,2.00
2018-08-11T00:16:35.786Z,1.53
2018-08-11T00:19:03.913Z,2.07
2018-08-11T00:21:32.315Z,1.90
2018-08-11T00:24:00.492Z,2.20
2018-08-11T00:26:29.748Z,1.70
2018-08-11T00:28:57.914Z,1.93
2018-08-11T00:31:26.055Z,1.80
2018-08-11T00:33:54.360Z,2.07
2018-08-11T00:36:22.558Z,2.13
2018-08-11T00:38:50.869Z,1.83
2018-08-11T00:41:19.043Z,2.10
2018-08-11T00:43:48.648Z,2.20
2018-08-11T00:46:16.895Z,1.80
2018-08-11T00:48:45.216Z,2.10
2018-08-11T00:51:14.793Z,1.97
2018-08-11T00:53:44.311Z,1.87
2018-08-11T00:56:12.454Z,1.70
2018-08-11T00:58:40.638Z,1.90
2018-08-11T01:01:08.953Z,1.93
2018-08-11T01:03:37.394Z,1.93
2018-08-11T01:06:05.591Z,2.60
2018-08-11T01:08:33.716Z,2.00
2018-08-11T01:11:02.021Z,2.00
2018-08-11T01:13:30.125Z,1.80
2018-08-11T01:15:58.384Z,2.10
2018-08-11T01:18:26.558Z,1.67
2018-08-11T01:20:54.706Z,1.80
2018-08-11T01:23:22.844Z,2.00
2018-08-11T01:25:51.023Z,1.43
2018-08-11T01:28:19.249Z,2.20
2018-08-11T01:30:47.506Z,2.30
2018-08-11T01:33:15.696Z,2.57
2018-08-11T01:35:44.957Z,1.83
2018-08-11T01:38:13.115Z,2.00
2018-08-11T01:40:41.260Z,2.23
2018-08-11T01:43:09.407Z,3.30
2018-08-11T01:45:37.600Z,2.67
2018-08-11T01:48:05.767Z,1.73
2018-08-11T01:50:33.938Z,2.60
2018-08-11T01:53:02.079Z,2.60
2018-08-11T01:55:30.264Z,2.03
2018-08-11T01:57:58.412Z,2.40
2018-08-11T02:00:27.208Z,2.43
2018-08-11T02:02:55.369Z,2.20
2018-08-11T02:05:23.499Z,2.60
2018-08-11T02:07:51.645Z,2.17
2018-08-11T02:10:20.793Z,2.20
2018-08-11T02:12:49.593Z,2.00
2018-08-11T02:15:18.403Z,2.30
2018-08-11T02:17:46.610Z,2.00
2018-08-11T02:20:15.941Z,2.00
2018-08-11T02:22:45.532Z,2.07
2018-08-11T02:25:13.751Z,1.80
2018-08-11T02:27:41.943Z,1.80
2018-08-11T02:30:12.354Z,2.33
2018-08-11T02:32:40.685Z,1.97
2018-08-11T02:35:11.434Z,2.10
2018-08-11T02:37:39.790Z,2.10
2018-08-11T02:40:09.792Z,2.00
2018-08-11T02:42:37.964Z,2.90
2018-08-11T02:45:06.893Z,2.30
2018-08-11T02:47:36.235Z,1.90
2018-08-11T02:50:06.007Z,2.70
2018-08-11T02:52:34.304Z,2.10
2018-08-11T02:55:02.551Z,2.20
2018-08-11T02:57:30.686Z,2.17
2018-08-11T02:59:58.813Z,1.97
2018-08-11T03:02:27.046Z,2.00
2018-08-11T03:04:55.230Z,2.50
2018-08-11T03:07:24.213Z,2.07
2018-08-11T03:09:53.258Z,2.40
2018-08-11T03:12:21.542Z,2.43
2018-08-11T03:14:49.666Z,2.47
2018-08-11T03:17:17.864Z,2.40
2018-08-11T03:19:46.027Z,2.17
2018-08-11T03:22:14.215Z,2.27
2018-08-11T03:24:49.318Z,2.53
2018-08-11T03:27:17.774Z,2.10
2018-08-11T03:29:46.854Z,2.53
2018-08-11T03:32:14.993Z,2.70
2018-08-11T03:34:43.130Z,2.40
2018-08-11T03:37:11.306Z,2.20
2018-08-11T03:39:39.547Z,2.30
2018-08-11T03:42:07.781Z,2.97
2018-08-11T03:44:36.630Z,2.27
2018-08-11T03:47:04.830Z,1.87
2018-08-11T03:49:33.058Z,2.30
2018-08-11T03:52:01.502Z,2.20
2018-08-11T03:54:29.650Z,2.23
2018-08-11T03:56:57.818Z,2.80
2018-08-11T03:59:25.994Z,2.60
2018-08-11T04:01:54.210Z,2.23
2018-08-11T04:04:22.346Z,2.20
2018-08-11T04:06:50.480Z,2.20
2018-08-11T04:09:18.600Z,2.50
2018-08-11T04:11:46.962Z,2.20
2018-08-11T04:14:16.330Z,2.13
2018-08-11T04:16:44.455Z,2.50
2018-08-11T04:19:12.706Z,2.47
2018-08-11T04:21:40.830Z,2.27
2018-08-11T04:24:09.358Z,2.50
2018-08-11T04:26:37.502Z,2.20
2018-08-11T04:29:05.784Z,1.93
2018-08-11T04:31:33.932Z,2.40
2018-08-11T04:34:02.134Z,2.23
2018-08-11T04:36:30.355Z,2.10
2018-08-11T04:38:58.513Z,2.00
2018-08-11T04:41:26.684Z,2.50
2018-08-11T04:43:54.982Z,2.03
2018-08-11T04:46:23.156Z,2.00
2018-08-11T04:48:51.347Z,1.80
2018-08-11T04:51:19.486Z,2.70
2018-08-11T04:53:47.602Z,2.13
2018-08-11T04:56:15.782Z,1.87
2018-08-11T04:58:43.970Z,1.70
2018-08-11T05:01:12.850Z,1.73
2018-08-11T05:03:41.066Z,2.73
2018-08-11T05:06:10.084Z,2.60
2018-08-11T05:08:38.236Z,1.97
2018-08-11T05:11:06.368Z,1.67
2018-08-11T05:13:34.572Z,1.87
2018-08-11T05:16:02.726Z,1.60
2018-08-11T05:18:30.884Z,2.63
2018-08-11T05:20:59.609Z,1.83
2018-08-11T05:23:29.146Z,2.10
2018-08-11T05:25:57.292Z,2.17
2018-08-11T05:28:25.536Z,3.10
2018-08-11T05:30:53.766Z,2.10
2018-08-11T05:33:21.908Z,6.43
2018-08-11T05:35:50.254Z,2.20
2018-08-11T05:38:18.916Z,2.10
2018-08-11T05:40:48.259Z,1.50
2018-08-11T05:43:16.520Z,1.90
2018-08-11T05:45:44.754Z,1.90
2018-08-11T05:48:12.896Z,1.70
2018-08-11T05:50:41.030Z,1.70
2018-08-11T05:53:09.216Z,1.70
2018-08-11T05:55:38.320Z,1.97
2018-08-11T05:58:07.346Z,1.40
2018-08-11T06:00:36.600Z,1.43
2018-08-11T06:03:04.788Z,1.90
2018-08-11T06:05:32.926Z,1.97
2018-08-11T06:08:03.130Z,1.90
2018-08-11T06:10:31.987Z,1.87
2018-08-11T06:13:00.852Z,1.70
2018-08-11T06:15:29.054Z,1.50
2018-08-11T06:17:57.212Z,2.07
2018-08-11T06:20:25.470Z,1.80
2018-08-11T06:22:56.661Z,1.67
2018-08-11T06:25:26.024Z,2.10
2018-08-11T06:27:54.142Z,1.67
2018-08-11T06:30:22.338Z,2.57
2018-08-11T06:32:50.698Z,2.30
2018-08-11T06:35:18.844Z,1.90
2018-08-11T06:37:47.163Z,1.93
2018-08-11T06:40:15.818Z,1.93
2018-08-11T06:42:43.956Z,1.80
2018-08-11T06:45:13.343Z,1.80
2018-08-11T06:47:41.486Z,2.23
2018-08-11T06:50:09.670Z,2.03
2018-08-11T06:52:37.876Z,1.90
2018-08-11T06:55:06.256Z,1.90
2018-08-11T06:57:34.502Z,1.70
2018-08-11T07:00:02.632Z,1.87
2018-08-11T07:02:30.782Z,2.43
2018-08-11T07:04:58.960Z,1.90
2018-08-11T07:07:27.176Z,1.83
2018-08-11T07:09:55.315Z,2.10
2018-08-11T07:12:23.822Z,2.73
2018-08-11T07:14:51.988Z,2.17
2018-08-11T07:17:20.360Z,1.80
2018-08-11T07:19:48.630Z,2.13
2018-08-11T07:22:16.885Z,2.30
2018-08-11T07:24:45.154Z,2.10
2018-08-11T07:27:13.402Z,1.60
2018-08-11T07:29:41.642Z,1.53
2018-08-11T07:32:09.860Z,1.73
2018-08-11T07:34:38.158Z,1.60
2018-08-11T07:37:06.362Z,1.90
2018-08-11T07:39:34.640Z,2.10
2018-08-11T07:42:04.306Z,2.10
2018-08-11T07:44:32.530Z,1.60
2018-08-11T07:47:00.724Z,1.90
2018-08-11T07:49:28.892Z,1.83
2018-08-11T07:51:57.027Z,1.70
2018-08-11T07:54:25.114Z,2.13
2018-08-11T07:56:53.933Z,1.40
2018-08-11T07:59:22.164Z,1.20
2018-08-11T08:01:50.304Z,1.40
2018-08-11T08:04:18.694Z,1.70
2018-08-11T08:06:46.867Z,1.63
2018-08-11T08:09:15.174Z,1.70
2018-08-11T08:11:43.405Z,2.77
2018-08-11T08:14:14.290Z,2.10
2018-08-11T08:16:42.620Z,1.30
2018-08-11T08:19:11.834Z,1.20
2018-08-11T08:21:40.009Z,1.10
2018-08-11T08:24:08.701Z,0.90
2018-08-11T08:26:37.008Z,1.20
2018-08-11T08:29:05.316Z,1.00
2018-08-11T08:31:33.719Z,1.37
2018-08-11T08:34:01.811Z,1.23
2018-08-11T08:36:29.996Z,1.00
2018-08-11T08:38:58.798Z,1.30
2018-08-11T08:41:27.098Z,1.20
2018-08-11T08:43:55.231Z,1.20
2018-08-11T08:46:23.392Z,0.93
2018-08-11T08:48:51.557Z,1.17
2018-08-11T08:51:19.736Z,1.10
2018-08-11T08:53:47.897Z,1.13
2018-08-11T08:56:16.910Z,1.30
2018-08-11T08:58:45.034Z,1.30
2018-08-11T09:01:14.349Z,1.20
2018-08-11T09:03:49.315Z,1.20
2018-08-11T09:06:17.499Z,1.40
2018-08-11T09:08:45.691Z,1.27
2018-08-11T09:11:14.021Z,1.23
2018-08-11T09:13:42.245Z,1.27
2018-08-11T09:16:10.513Z,0.87
2018-08-11T09:18:38.721Z,1.10
2018-08-11T09:21:06.934Z,1.83
2018-08-11T09:23:35.171Z,1.40
2018-08-11T09:26:03.422Z,1.30
2018-08-11T09:28:31.581Z,1.63
2018-08-11T09:30:59.730Z,1.43
2018-08-11T09:33:28.146Z,1.10
2018-08-11T09:35:56.328Z,1.43
2018-08-11T09:38:25.172Z,1.47
2018-08-11T09:40:53.318Z,1.00
2018-08-11T09:43:21.495Z,1.40
2018-08-11T09:45:49.693Z,1.50
2018-08-11T09:48:17.842Z,1.30
2018-08-11T09:50:46.003Z,1.13
2018-08-11T09:53:14.164Z,1.43
2018-08-11T09:55:42.550Z,1.27
2018-08-11T09:58:10.716Z,1.00
2018-08-11T10:00:44.440Z,1.50
2018-08-11T10:03:13.724Z,1.47
2018-08-11T10:05:41.859Z,1.97
2018-08-11T10:08:10.068Z,1.30
2018-08-11T10:10:38.239Z,1.43
2018-08-11T10:13:06.544Z,1.57
2018-08-11T10:15:34.690Z,1.60
2018-08-11T10:18:02.834Z,3.30
2018-08-11T10:20:30.936Z,1.90
2018-08-11T10:22:59.061Z,1.30
2018-08-11T10:25:27.211Z,2.90
2018-08-11T10:27:55.535Z,1.50
2018-08-11T10:30:23.745Z,1.73
2018-08-11T10:32:51.995Z,1.43
2018-08-11T10:35:20.192Z,1.47
2018-08-11T10:37:48.486Z,1.87
2018-08-11T10:40:16.671Z,1.53
2018-08-11T10:42:44.970Z,1.40
2018-08-11T10:45:13.285Z,1.10
2018-08-11T10:47:41.448Z,1.63
2018-08-11T10:50:09.619Z,1.40
2018-08-11T10:52:37.830Z,1.70
2018-08-11T10:55:06.821Z,1.50
2018-08-11T10:57:35.017Z,1.30
2018-08-11T11:00:03.192Z,1.10
2018-08-11T11:02:31.386Z,0.90
2018-08-11T11:04:59.666Z,2.93
2018-08-11T11:07:27.875Z,1.00
2018-08-11T11:09:56.051Z,1.03
2018-08-11T11:12:24.432Z,0.90
2018-08-11T11:14:54.180Z,0.97
2018-08-11T11:17:22.390Z,1.30
2018-08-11T11:19:51.125Z,1.07
2018-08-11T11:22:19.254Z,0.83
2018-08-11T11:24:47.450Z,1.00
2018-08-11T11:27:16.321Z,0.97
2018-08-11T11:29:44.533Z,0.70
2018-08-11T11:32:13.586Z,0.70
2018-08-11T11:34:42.008Z,0.80
2018-08-11T11:37:10.264Z,0.60
2018-08-11T11:39:38.398Z,0.70
2018-08-11T11:42:06.691Z,0.80
2018-08-11T11:44:35.026Z,1.00
2018-08-11T11:47:03.208Z,0.80
2018-08-11T11:49:31.532Z,0.90
2018-08-11T11:51:59.831Z,0.57
2018-08-11T11:54:27.988Z,0.70
2018-08-11T11:56:56.236Z,0.57
2018-08-11T11:59:24.435Z,0.70
2018-08-11T12:01:52.685Z,1.13
2018-08-11T12:04:21.812Z,0.83
2018-08-11T12:06:50.034Z,0.70
2018-08-11T12:09:18.240Z,1.00
2018-08-11T12:11:47.170Z,1.60
2018-08-11T12:14:15.348Z,0.63
2018-08-11T12:16:43.514Z,0.90
2018-08-11T12:19:11.734Z,0.70
2018-08-11T12:21:40.011Z,0.83
2018-08-11T12:24:08.204Z,1.00
2018-08-11T12:26:36.360Z,1.10
2018-08-11T12:29:04.593Z,1.10
2018-08-11T12:31:32.742Z,0.97
2018-08-11T12:34:00.939Z,1.00
2018-08-11T12:36:29.075Z,1.33
2018-08-11T12:38:57.375Z,0.80
2018-08-11T12:41:25.861Z,1.17
2018-08-11T12:43:54.047Z,0.80
2018-08-11T12:46:22.158Z,1.00
2018-08-11T12:48:50.377Z,1.00
2018-08-11T12:51:18.668Z,1.10
2018-08-11T12:53:46.869Z,0.70
2018-08-11T12:56:15.904Z,0.87
2018-08-11T12:58:44.176Z,1.00
2018-08-11T13:01:12.362Z,1.00
2018-08-11T13:03:40.737Z,0.67
2018-08-11T13:06:08.943Z,0.50
2018-08-11T13:08:37.158Z,1.00
2018-08-11T13:11:06.239Z,0.90
2018-08-11T13:13:34.472Z,1.27
2018-08-11T13:16:02.778Z,0.90
2018-08-11T13:18:30.976Z,0.83
2018-08-11T13:20:59.120Z,0.90
2018-08-11T13:23:28.563Z,0.97
2018-08-11T13:25:56.742Z,0.73
2018-08-11T13:28:24.913Z,0.80
2018-08-11T13:30:53.103Z,1.10
2018-08-11T13:33:21.249Z,0.80
2018-08-11T13:35:49.421Z,0.67
2018-08-11T13:38:17.612Z,0.90
2018-08-11T13:40:45.795Z,0.80
2018-08-11T13:43:14.177Z,1.00
2018-08-11T13:45:42.456Z,0.80
2018-08-11T13:48:10.542Z,0.97
2018-08-11T13:50:38.708Z,1.27
2018-08-11T13:53:06.850Z,0.97
2018-08-11T13:55:35.050Z,1.20
2018-08-11T13:58:03.184Z,1.00
2018-08-11T14:00:31.324Z,1.00
2018-08-11T14:02:59.716Z,0.90
2018-08-11T14:05:27.990Z,1.13
2018-08-11T14:07:56.108Z,0.93
2018-08-11T14:10:24.289Z,2.83
2018-08-11T14:12:52.473Z,1.13
2018-08-11T14:15:20.648Z,0.97
2018-08-11T14:17:49.206Z,0.90
2018-08-11T14:20:17.398Z,1.00
2018-08-11T14:22:45.700Z,1.37
2018-08-11T14:25:13.938Z,1.50
2018-08-11T14:27:42.081Z,1.40
2018-08-11T14:30:11.360Z,1.30
2018-08-11T14:32:39.731Z,1.07
2018-08-11T14:35:08.526Z,1.10
2018-08-11T14:37:36.688Z,1.57
2018-08-11T14:40:06.899Z,1.10
2018-08-11T14:42:35.123Z,0.97
2018-08-11T14:45:03.371Z,1.20
2018-08-11T14:47:31.502Z,1.00
2018-08-11T14:49:59.745Z,1.13
2018-08-11T14:52:27.912Z,1.80
2018-08-11T14:54:56.286Z,1.20
2018-08-11T14:57:24.437Z,1.53
2018-08-11T14:59:52.536Z,0.90
2018-08-11T15:02:20.708Z,1.20
2018-08-11T15:04:48.914Z,1.23
2018-08-11T15:07:17.126Z,1.10
2018-08-11T15:09:45.265Z,1.67
2018-08-11T15:12:13.498Z,1.33
2018-08-11T15:14:41.691Z,1.23
2018-08-11T15:17:10.002Z,1.17
2018-08-11T15:19:38.296Z,1.80
2018-08-11T15:22:06.478Z,1.40
2018-08-11T15:24:41.107Z,1.30
2018-08-11T15:27:09.458Z,1.10
2018-08-11T15:29:37.582Z,1.90
2018-08-11T15:32:05.710Z,1.40
2018-08-11T15:34:33.845Z,1.43
2018-08-11T15:37:02.044Z,1.80
2018-08-11T15:39:30.221Z,1.33
2018-08-11T15:41:58.359Z,1.20
2018-08-11T15:44:26.508Z,1.37
2018-08-11T15:46:54.672Z,1.40
2018-08-11T15:49:22.923Z,1.13
2018-08-11T15:51:51.094Z,1.27
2018-08-11T15:54:20.015Z,1.23
2018-08-11T15:56:48.104Z,1.20
2018-08-11T15:59:16.226Z,1.40
2018-08-11T16:01:44.410Z,1.40
2018-08-11T16:04:12.546Z,1.10
2018-08-11T16:06:40.863Z,1.20
2018-08-11T16:09:09.610Z,1.27
2018-08-11T16:11:38.065Z,1.10
2018-08-11T16:14:07.410Z,1.20
2018-08-11T16:16:35.634Z,1.20
2018-08-11T16:19:03.790Z,1.30
2018-08-11T16:21:31.979Z,0.90
2018-08-11T16:24:00.161Z,1.50
2018-08-11T16:26:28.390Z,1.67
2018-08-11T16:28:56.496Z,2.33
2018-08-11T16:31:24.918Z,1.57
2018-08-11T16:33:53.102Z,1.30
2018-08-11T16:36:21.260Z,2.10
2018-08-11T16:38:49.370Z,3.10
2018-08-11T16:41:17.572Z,1.30
2018-08-11T16:43:45.784Z,1.83
2018-08-11T16:46:14.086Z,1.53
2018-08-11T16:48:42.546Z,1.53
2018-08-11T16:51:11.298Z,2.13
2018-08-11T16:53:39.438Z,1.60
2018-08-11T16:56:07.732Z,1.23
2018-08-11T16:58:35.872Z,1.83
2018-08-11T17:01:04.321Z,1.30
2018-08-11T17:03:32.538Z,1.60
2018-08-11T17:06:00.688Z,1.80
2018-08-11T17:08:28.994Z,1.30
2018-08-11T17:10:57.117Z,1.30
2018-08-11T17:13:25.414Z,1.83
2018-08-11T17:15:53.583Z,1.37
2018-08-11T17:18:21.759Z,1.00
2018-08-11T17:20:50.256Z,1.23
2018-08-11T17:23:18.320Z,1.37
2018-08-11T17:25:46.622Z,2.00
2018-08-11T17:28:14.792Z,1.87
2018-08-11T17:30:42.942Z,1.10
2018-08-11T17:33:11.254Z,0.97
2018-08-11T17:35:39.469Z,1.30
2018-08-11T17:38:07.694Z,1.30
2018-08-11T17:40:35.943Z,0.90
2018-08-11T17:43:04.179Z,1.20
2018-08-11T17:45:33.682Z,1.10
2018-08-11T17:48:01.982Z,2.20
2018-08-11T17:50:30.122Z,1.60
2018-08-11T17:52:58.464Z,1.67
2018-08-11T17:55:26.684Z,1.20
2018-08-11T17:57:55.234Z,1.50
2018-08-11T18:00:23.390Z,1.47
2018-08-11T18:02:51.559Z,1.43
2018-08-11T18:05:19.766Z,1.87
2018-08-11T18:07:47.909Z,1.63
2018-08-11T18:10:16.066Z,1.40
2018-08-11T18:12:44.310Z,1.40
2018-08-11T18:15:19.974Z,1.60
2018-08-11T18:17:48.144Z,1.40
2018-08-11T18:20:17.230Z,0.80
2018-08-11T18:22:45.438Z,1.00
2018-08-11T18:25:13.639Z,1.07
2018-08-11T18:27:41.762Z,1.27
2018-08-11T18:30:10.421Z,1.10
2018-08-11T18:32:38.672Z,1.20
2018-08-11T18:35:07.332Z,1.00
2018-08-11T18:37:35.519Z,0.90
2018-08-11T18:40:04.167Z,1.03
2018-08-11T18:42:32.543Z,0.93
2018-08-11T18:45:00.762Z,0.80
2018-08-11T18:47:28.915Z,1.20
2018-08-11T18:49:57.210Z,0.90
2018-08-11T18:52:25.451Z,1.10
2018-08-11T18:54:54.289Z,1.10
2018-08-11T18:57:22.591Z,1.50
2018-08-11T18:59:50.787Z,1.77
2018-08-11T19:02:18.972Z,1.00
2018-08-11T19:04:47.381Z,2.10
2018-08-11T19:07:15.771Z,1.97
2018-08-11T19:09:44.039Z,2.23
2018-08-11T19:12:12.178Z,1.17
2018-08-11T19:14:40.362Z,1.07
2018-08-11T19:17:08.533Z,0.97
2018-08-11T19:19:36.837Z,0.90
2018-08-11T19:22:05.002Z,0.70
2018-08-11T19:24:34.245Z,1.00
2018-08-11T19:27:03.511Z,0.90
2018-08-11T19:29:31.714Z,1.10
2018-08-11T19:31:59.846Z,1.00
2018-08-11T19:34:29.191Z,0.80
2018-08-11T19:36:57.365Z,0.80
2018-08-11T19:39:25.599Z,2.20
2018-08-11T19:41:54.041Z,1.00
2018-08-11T19:44:22.253Z,0.87
2018-08-11T19:46:50.419Z,0.80
2018-08-11T19:49:18.595Z,1.53
2018-08-11T19:51:46.823Z,1.20
2018-08-11T19:54:15.014Z,1.57
2018-08-11T19:56:44.216Z,1.00
2018-08-11T19:59:12.871Z,1.10
2018-08-11T20:01:41.302Z,1.10
2018-08-11T20:04:09.435Z,0.83
2018-08-11T20:06:37.712Z,0.70
2018-08-11T20:09:08.017Z,0.80
2018-08-11T20:11:36.247Z,0.97
2018-08-11T20:14:04.431Z,1.50
2018-08-11T20:16:32.635Z,1.20
2018-08-11T20:19:00.863Z,1.30
2018-08-11T20:21:28.993Z,1.00
2018-08-11T20:23:57.137Z,1.00
2018-08-11T20:26:25.303Z,0.80
2018-08-11T20:28:53.552Z,1.17
2018-08-11T20:31:21.792Z,1.80
2018-08-11T20:33:50.066Z,1.00
2018-08-11T20:36:18.201Z,1.13
2018-08-11T20:38:46.399Z,1.40
2018-08-11T20:41:14.637Z,0.77
2018-08-11T20:43:42.823Z,0.97
2018-08-11T20:46:11.204Z,1.23
2018-08-11T20:48:39.379Z,1.00
2018-08-11T20:51:07.705Z,0.63
2018-08-11T20:53:36.049Z,1.00
2018-08-11T20:56:04.175Z,0.93
2018-08-11T20:58:32.521Z,1.00
2018-08-11T21:01:00.650Z,1.10
2018-08-11T21:03:28.894Z,1.00
2018-08-11T21:05:57.237Z,1.00
2018-08-11T21:08:25.483Z,0.73
2018-08-11T21:10:53.657Z,1.10
2018-08-11T21:13:21.905Z,1.00
2018-08-11T21:15:50.076Z,1.30
2018-08-11T21:18:18.289Z,0.70
2018-08-11T21:20:46.550Z,1.07
2018-08-11T21:23:14.759Z,1.10
2018-08-11T21:25:43.049Z,0.80
2018-08-11T21:28:11.247Z,0.90
2018-08-11T21:30:39.456Z,1.33
2018-08-11T21:33:07.679Z,1.17
2018-08-11T21:35:36.032Z,1.00
2018-08-11T21:38:04.354Z,1.00
2018-08-11T21:40:32.673Z,1.40
2018-08-11T21:43:00.880Z,0.93
2018-08-11T21:45:29.123Z,1.10
2018-08-11T21:47:57.255Z,1.30
2018-08-11T21:50:25.429Z,0.80
2018-08-11T21:52:53.611Z,0.70
2018-08-11T21:55:21.887Z,0.80
2018-08-11T21:57:50.903Z,0.80
2018-08-11T22:00:35.184Z,0.80
2018-08-11T22:03:03.614Z,1.00
2018-08-11T22:05:31.784Z,1.00
2018-08-11T22:08:00.989Z,0.93
2018-08-11T22:10:29.426Z,1.03
2018-08-11T22:12:57.586Z,0.80
2018-08-11T22:15:25.805Z,1.10
2018-08-11T22:17:53.941Z,0.70
2018-08-11T22:20:28.805Z,1.00
2018-08-11T22:22:57.140Z,0.87
2018-08-11T22:25:25.523Z,0.90
2018-08-11T22:27:53.763Z,1.30
2018-08-11T22:30:22.049Z,1.10
2018-08-11T22:32:50.235Z,0.70
2018-08-11T22:35:18.419Z,1.00
2018-08-11T22:37:47.750Z,0.87
2018-08-11T22:40:15.853Z,1.00
2018-08-11T22:42:43.989Z,0.90
2018-08-11T22:45:12.723Z,0.83
2018-08-11T22:47:41.015Z,1.07
2018-08-11T22:50:11.135Z,0.93
2018-08-11T22:52:39.985Z,0.90
2018-08-11T22:55:08.587Z,0.70
2018-08-11T22:57:37.807Z,0.80
2018-08-11T23:00:11.699Z,0.80
2018-08-11T23:02:40.891Z,0.97
2018-08-11T23:05:09.091Z,0.73
2018-08-11T23:07:37.474Z,0.87
2018-08-11T23:10:06.623Z,1.20
2018-08-11T23:12:36.047Z,1.50
2018-08-11T23:15:05.152Z,0.80
2018-08-11T23:17:33.347Z,0.80
2018-08-11T23:20:02.482Z,0.90
2018-08-11T23:22:30.623Z,1.00
2018-08-11T23:24:58.773Z,1.10
2018-08-11T23:27:27.038Z,1.00
2018-08-11T23:29:55.274Z,1.60
2018-08-11T23:32:23.483Z,1.03
2018-08-11T23:34:51.766Z,1.20
2018-08-11T23:37:20.185Z,0.60
2018-08-11T23:39:48.279Z,0.93
2018-08-11T23:42:16.639Z,0.93
2018-08-11T23:44:44.987Z,1.77
2018-08-11T23:47:13.119Z,1.20
2018-08-11T23:49:41.495Z,0.90
2018-08-11T23:52:09.665Z,1.10
2018-08-11T23:54:37.851Z,1.03
2018-08-11T23:57:06.450Z,1.10
2018-08-11T23:59:34.847Z,2.00
